Terminal Aerodrome Forecast
Issued by NWS Twin Cities, MN

Home | Current Version | Previous Version | Text Only | Print | Product List | Glossary On
Versions: 1 2 3 4 5 6 7 8 9 10 11 12 13 14 15 16 17
681
FTUS43 KMPX 200520
TAFEAU
TAF
KEAU 200520Z 2006/2106 03009KT P6SM OVC010
     FM200900 04007KT 2SM -FZRAPL OVC006
     FM201200 VRB03KT 3SM -FZRASN OVC008
     FM201400 29007KT P6SM OVC008
     FM202000 29009KT P6SM OVC012=

USA.gov is the U.S. government's official web portal to all federal, state and local government web resources and services.